Rio Grande City, Texas
Current Conditions -  °F | °C
As of 5:53 AM on Monday 22 Dec 2014 (Local Time) from KMFE Reporting Station
Haze Haze  
Wind Chill: 61°   Ceiling: 200
Heat Index: 61°   Visibility: 4mi
Dew Point: 61°   Wind: 9mph
Humidity: 100%   Direction: 160°SSE
Pressure: 29.8"   Gusts: NA
Location:  26.38°N, 98.81°W
Report Text: KMFE 221153Z AUTO 16008KT 4SM BR OVC002 16/16 A2980 RMK AO2 SLP089 T01610161 10161 20133 55003
Loading
Personal Weather Stations






























Interactive Weather Map New forecast layout! Learn more

10-Day Weather Forecast

Advertisements
Track Severe Weather on mobile